createdAt,value
2022-11-15T00:00:14.762Z,95.86
2022-11-15T00:02:16.210Z,95.80
2022-11-15T00:04:17.716Z,95.79
2022-11-15T00:06:19.144Z,96.27
2022-11-15T00:08:20.619Z,95.73
2022-11-15T00:10:22.196Z,95.50
2022-11-15T00:12:23.644Z,95.01
2022-11-15T00:14:25.064Z,95.07
2022-11-15T00:16:26.659Z,95.21
2022-11-15T00:18:29.111Z,94.77
2022-11-15T00:20:30.879Z,95.20
2022-11-15T00:22:34.310Z,95.07
2022-11-15T00:24:35.730Z,95.13
2022-11-15T00:26:37.206Z,94.59
2022-11-15T00:28:38.671Z,94.29
2022-11-15T00:30:41.095Z,93.89
2022-11-15T00:32:42.503Z,93.51
2022-11-15T00:34:43.904Z,93.20
2022-11-15T00:36:45.367Z,92.13
2022-11-15T00:38:46.776Z,91.24
2022-11-15T00:40:48.205Z,91.19
2022-11-15T00:42:49.631Z,91.30
2022-11-15T00:44:51.060Z,90.79
2022-11-15T00:46:52.527Z,90.28
2022-11-15T00:48:53.970Z,90.59
2022-11-15T00:50:55.433Z,90.59
2022-11-15T00:52:56.878Z,90.11
2022-11-15T00:54:58.291Z,90.85
2022-11-15T00:56:59.712Z,91.26
2022-11-15T00:59:01.123Z,90.94
2022-11-15T01:01:15.024Z,91.10
2022-11-15T01:03:16.518Z,91.00
2022-11-15T01:05:18.101Z,90.51
2022-11-15T01:07:19.602Z,90.56
2022-11-15T01:09:21.132Z,90.39
2022-11-15T01:11:22.611Z,90.22
2022-11-15T01:13:24.023Z,89.76
2022-11-15T01:15:25.552Z,90.10
2022-11-15T01:17:27.251Z,90.29
2022-11-15T01:19:28.663Z,90.02
2022-11-15T01:21:30.282Z,90.92
2022-11-15T01:23:32.067Z,90.75
2022-11-15T01:25:33.760Z,90.64
2022-11-15T01:27:35.218Z,90.47
2022-11-15T01:29:36.761Z,89.91
2022-11-15T01:31:38.970Z,89.61
2022-11-15T01:33:40.441Z,89.02
2022-11-15T01:35:41.955Z,89.11
2022-11-15T01:37:43.360Z,88.49
2022-11-15T01:39:44.766Z,88.83
2022-11-15T01:41:46.248Z,88.35
2022-11-15T01:43:56.918Z,88.04
2022-11-15T01:46:15.658Z,87.95
2022-11-15T01:48:16.999Z,88.22
2022-11-15T01:50:23.420Z,88.43
2022-11-15T01:52:27.471Z,88.23
2022-11-15T01:54:29.443Z,88.86
2022-11-15T01:56:37.088Z,88.00
2022-11-15T01:58:40.998Z,88.59
2022-11-15T02:00:42.585Z,88.02
2022-11-15T02:02:44.471Z,88.26
2022-11-15T02:04:47.963Z,88.56
2022-11-15T02:06:49.801Z,89.65
2022-11-15T02:08:51.896Z,90.46
2022-11-15T02:10:53.329Z,90.02
2022-11-15T02:12:57.071Z,89.44
2022-11-15T02:14:58.713Z,90.64
2022-11-15T02:17:21.129Z,90.85
2022-11-15T02:19:34.581Z,91.07
2022-11-15T02:21:44.867Z,90.58
2022-11-15T02:23:58.303Z,90.21
2022-11-15T02:26:11.869Z,89.97
2022-11-15T02:28:22.455Z,89.50
2022-11-15T02:30:42.405Z,90.46
2022-11-15T02:32:50.515Z,90.74
2022-11-15T02:35:18.626Z,91.58
2022-11-15T02:37:34.862Z,92.38
2022-11-15T02:40:02.841Z,92.50
2022-11-15T02:42:34.390Z,93.48
2022-11-15T02:44:42.867Z,93.66
2022-11-15T02:47:11.567Z,93.71
2022-11-15T02:49:15.427Z,94.07
2022-11-15T02:51:17.744Z,94.23
2022-11-15T02:53:19.281Z,94.27
2022-11-15T02:55:51.374Z,94.79
2022-11-15T02:58:05.062Z,95.01
2022-11-15T03:00:10.864Z,95.67
2022-11-15T03:02:51.048Z,95.45
2022-11-15T03:04:57.621Z,95.58
2022-11-15T03:07:12.521Z,96.12
2022-11-15T03:09:27.508Z,96.21
2022-11-15T03:11:34.034Z,96.46
2022-11-15T03:13:41.065Z,96.26
2022-11-15T03:15:52.461Z,96.57
2022-11-15T03:18:01.524Z,96.93
2022-11-15T03:20:06.829Z,96.94
2022-11-15T03:22:12.161Z,97.16
2022-11-15T03:24:19.780Z,96.97
2022-11-15T03:26:24.606Z,97.50
2022-11-15T03:28:43.631Z,97.53
2022-11-15T03:30:48.856Z,97.74
2022-11-15T03:32:59.040Z,97.73
2022-11-15T03:35:24.815Z,97.72
2022-11-15T03:37:37.042Z,97.93
2022-11-15T03:39:38.588Z,98.04
2022-11-15T03:41:58.563Z,98.08
2022-11-15T03:44:28.178Z,97.98
2022-11-15T03:46:35.322Z,98.64
2022-11-15T03:48:43.836Z,98.25
2022-11-15T03:50:47.380Z,98.44
2022-11-15T03:52:50.542Z,98.35
2022-11-15T03:54:55.848Z,99.08
2022-11-15T03:56:57.407Z,99.09
2022-11-15T03:58:58.896Z,99.37
2022-11-15T04:01:00.494Z,98.96
2022-11-15T04:03:02.029Z,99.12
2022-11-15T04:05:04.271Z,99.62
2022-11-15T04:07:05.763Z,99.08
2022-11-15T04:09:07.347Z,99.39
2022-11-15T04:11:08.917Z,99.56
2022-11-15T04:13:10.488Z,99.18
2022-11-15T04:15:14.800Z,98.85
2022-11-15T04:17:16.349Z,98.75
2022-11-15T04:19:36.436Z,99.13
2022-11-15T04:22:16.154Z,98.93
2022-11-15T04:24:17.673Z,98.99
2022-11-15T04:26:22.792Z,99.19
2022-11-15T04:28:24.406Z,99.53
2022-11-15T04:30:25.891Z,99.08
2022-11-15T04:32:27.411Z,99.58
2022-11-15T04:34:28.938Z,99.14
2022-11-15T04:36:48.748Z,99.40
2022-11-15T04:38:50.166Z,99.26
2022-11-15T04:40:51.669Z,99.47
2022-11-15T04:42:53.145Z,99.44
2022-11-15T04:44:54.581Z,99.27
2022-11-15T04:46:56.047Z,99.21
2022-11-15T04:48:59.216Z,99.59
2022-11-15T04:51:00.877Z,99.82
2022-11-15T04:53:02.345Z,99.61
2022-11-15T04:55:08.121Z,99.77
2022-11-15T04:57:09.902Z,99.43
2022-11-15T04:59:11.356Z,99.75
2022-11-15T05:01:15.621Z,99.39
2022-11-15T05:03:35.944Z,99.90
2022-11-15T05:05:37.982Z,99.71
2022-11-15T05:07:39.384Z,100.00
2022-11-15T05:09:40.813Z,99.48
2022-11-15T05:11:42.316Z,99.86
2022-11-15T05:13:43.926Z,99.76
2022-11-15T05:15:45.396Z,100.00
2022-11-15T05:17:46.878Z,100.00
2022-11-15T05:19:48.395Z,99.88
2022-11-15T05:21:49.895Z,99.90
2022-11-15T05:23:51.389Z,100.00
2022-11-15T05:25:52.821Z,99.97
2022-11-15T05:27:54.528Z,100.00
2022-11-15T05:29:56.088Z,99.69
2022-11-15T05:31:57.771Z,100.00
2022-11-15T05:34:00.943Z,100.00
2022-11-15T05:36:26.580Z,100.00
2022-11-15T05:38:28.025Z,99.77
2022-11-15T05:40:30.765Z,100.00
2022-11-15T05:42:32.199Z,100.00
2022-11-15T05:44:35.085Z,100.00
2022-11-15T05:46:40.131Z,99.95
2022-11-15T05:48:46.179Z,100.00
2022-11-15T05:50:48.790Z,100.00
2022-11-15T05:52:51.230Z,100.00
2022-11-15T05:54:53.507Z,100.00
2022-11-15T05:56:56.779Z,100.00
2022-11-15T05:58:59.918Z,99.65
2022-11-15T06:01:01.841Z,99.43
2022-11-15T06:03:03.380Z,99.80
2022-11-15T06:05:05.200Z,100.00
2022-11-15T06:07:06.670Z,99.63
2022-11-15T06:09:08.106Z,100.00
2022-11-15T06:11:09.594Z,99.67
2022-11-15T06:13:11.084Z,99.82
2022-11-15T06:15:12.569Z,99.57
2022-11-15T06:17:13.987Z,100.00
2022-11-15T06:19:15.484Z,100.00
2022-11-15T06:21:16.961Z,100.00
2022-11-15T06:23:18.616Z,100.00
2022-11-15T06:25:20.053Z,100.00
2022-11-15T06:27:21.465Z,99.98
2022-11-15T06:29:22.906Z,99.83
2022-11-15T06:31:24.598Z,99.79
2022-11-15T06:33:26.127Z,100.00
2022-11-15T06:35:27.567Z,100.00
2022-11-15T06:37:29.083Z,100.00
2022-11-15T06:39:30.537Z,99.58
2022-11-15T06:41:36.160Z,100.00
2022-11-15T06:43:38.386Z,100.00
2022-11-15T06:45:39.888Z,100.00
2022-11-15T06:47:48.184Z,100.00
2022-11-15T06:49:49.649Z,100.00
2022-11-15T06:51:51.077Z,100.00
2022-11-15T06:53:52.561Z,99.78
2022-11-15T06:55:55.706Z,100.00
2022-11-15T06:57:57.291Z,100.00
2022-11-15T06:59:58.791Z,100.00
2022-11-15T07:02:00.226Z,100.00
2022-11-15T07:04:01.718Z,100.00
2022-11-15T07:06:07.483Z,100.00
2022-11-15T07:08:10.554Z,100.00
2022-11-15T07:10:12.115Z,100.00
2022-11-15T07:12:13.842Z,100.00
2022-11-15T07:14:15.291Z,100.00
2022-11-15T07:16:16.809Z,100.00
2022-11-15T07:18:18.245Z,100.00
2022-11-15T07:20:19.992Z,100.00
2022-11-15T07:22:21.475Z,100.00
2022-11-15T07:24:22.919Z,100.00
2022-11-15T07:26:24.555Z,100.00
2022-11-15T07:28:29.490Z,100.00
2022-11-15T07:30:31.397Z,100.00
2022-11-15T07:32:32.861Z,100.00
2022-11-15T07:34:34.373Z,100.00
2022-11-15T07:36:35.806Z,100.00
2022-11-15T07:38:42.601Z,100.00
2022-11-15T07:40:44.517Z,100.00
2022-11-15T07:42:54.806Z,100.00
2022-11-15T07:44:56.782Z,100.00
2022-11-15T07:46:59.067Z,100.00
2022-11-15T07:49:00.514Z,100.00
2022-11-15T07:51:02.002Z,100.00
2022-11-15T07:53:03.481Z,100.00
2022-11-15T07:55:05.424Z,100.00
2022-11-15T07:57:08.161Z,100.00
2022-11-15T07:59:09.707Z,100.00
2022-11-15T08:01:11.612Z,100.00
2022-11-15T08:03:17.466Z,100.00
2022-11-15T08:05:18.955Z,100.00
2022-11-15T08:07:20.473Z,100.00
2022-11-15T08:09:21.906Z,100.00
2022-11-15T08:11:23.352Z,100.00
2022-11-15T08:13:24.854Z,100.00
2022-11-15T08:15:27.056Z,100.00
2022-11-15T08:17:28.537Z,100.00
2022-11-15T08:19:29.983Z,100.00
2022-11-15T08:21:31.606Z,100.00
2022-11-15T08:23:33.479Z,100.00
2022-11-15T08:25:36.500Z,100.00
2022-11-15T08:27:38.012Z,100.00
2022-11-15T08:29:39.546Z,100.00
2022-11-15T08:31:41.045Z,100.00
2022-11-15T08:33:42.509Z,100.00
2022-11-15T08:35:44.962Z,100.00
2022-11-15T08:37:46.623Z,100.00
2022-11-15T08:39:48.059Z,100.00
2022-11-15T08:41:49.828Z,100.00
2022-11-15T08:43:51.274Z,100.00
2022-11-15T08:45:52.705Z,100.00
2022-11-15T08:47:54.753Z,100.00
2022-11-15T08:49:56.589Z,100.00
2022-11-15T08:51:58.051Z,100.00
2022-11-15T08:53:59.491Z,100.00
2022-11-15T08:56:00.991Z,100.00
2022-11-15T08:58:02.463Z,100.00
2022-11-15T09:00:04.864Z,100.00
2022-11-15T09:02:06.701Z,100.00
2022-11-15T09:04:08.191Z,100.00
2022-11-15T09:06:10.165Z,99.74
2022-11-15T09:08:40.399Z,99.56
2022-11-15T09:10:35.285Z,99.88
2022-11-15T09:12:36.799Z,100.00
2022-11-15T09:14:38.473Z,100.00
2022-11-15T09:16:40.051Z,99.58
2022-11-15T09:18:42.375Z,99.77
2022-11-15T09:20:43.864Z,99.21
2022-11-15T09:22:45.320Z,99.24
2022-11-15T09:24:46.796Z,99.34
2022-11-15T09:26:51.594Z,99.08
2022-11-15T09:28:53.082Z,98.83
2022-11-15T09:31:01.728Z,98.57
2022-11-15T09:33:10.884Z,98.42
2022-11-15T09:35:12.340Z,98.28
2022-11-15T09:37:13.865Z,98.56
2022-11-15T09:39:15.302Z,98.66
2022-11-15T09:41:16.736Z,98.64
2022-11-15T09:43:33.471Z,98.46
2022-11-15T09:45:57.429Z,98.46
2022-11-15T09:48:36.749Z,98.29
2022-11-15T09:50:47.880Z,98.24
2022-11-15T09:52:49.840Z,98.13
2022-11-15T09:54:54.741Z,97.67
2022-11-15T09:57:15.714Z,97.44
2022-11-15T09:59:23.589Z,96.83
2022-11-15T10:01:50.689Z,95.31
2022-11-15T10:03:52.281Z,95.12
2022-11-15T10:05:58.038Z,94.61
2022-11-15T10:08:07.526Z,94.65
2022-11-15T10:10:21.708Z,94.31
2022-11-15T10:12:23.922Z,93.90
2022-11-15T10:14:28.735Z,93.55
2022-11-15T10:16:51.836Z,93.46
2022-11-15T10:19:27.345Z,93.25
2022-11-15T10:22:02.167Z,92.94
2022-11-15T10:24:15.953Z,93.25
2022-11-15T10:26:18.343Z,93.24
2022-11-15T10:28:22.636Z,93.02
2022-11-15T10:30:31.001Z,92.69
2022-11-15T10:32:37.022Z,93.02
2022-11-15T10:34:38.677Z,92.93
2022-11-15T10:36:50.154Z,93.07
2022-11-15T10:38:51.949Z,92.52
2022-11-15T10:41:08.697Z,92.41
2022-11-15T10:43:10.093Z,92.38
2022-11-15T10:45:39.363Z,91.97
2022-11-15T10:47:40.874Z,92.82
2022-11-15T10:49:54.989Z,93.30
2022-11-15T10:52:20.845Z,93.30
2022-11-15T10:54:43.590Z,91.88
2022-11-15T10:56:51.295Z,89.26
2022-11-15T10:58:56.612Z,87.72
2022-11-15T11:01:14.793Z,87.48
2022-11-15T11:03:38.555Z,86.66
2022-11-15T11:05:42.991Z,86.13
2022-11-15T11:07:57.434Z,86.42
2022-11-15T11:10:02.295Z,85.98
2022-11-15T11:12:05.926Z,84.48
2022-11-15T11:14:14.328Z,84.90
2022-11-15T11:16:15.795Z,85.43
2022-11-15T11:18:29.620Z,85.93
2022-11-15T11:20:49.400Z,86.00
2022-11-15T11:23:04.871Z,85.52
2022-11-15T11:25:42.228Z,81.06
2022-11-15T11:28:07.422Z,79.37
2022-11-15T11:30:32.788Z,80.32
2022-11-15T11:32:54.802Z,81.65
2022-11-15T11:35:09.436Z,81.89
2022-11-15T11:37:25.040Z,81.28
2022-11-15T11:39:46.088Z,80.97
2022-11-15T11:41:53.510Z,79.52
2022-11-15T11:44:07.048Z,79.48
2022-11-15T11:46:46.315Z,78.78
2022-11-15T11:48:53.043Z,79.73
2022-11-15T11:51:02.119Z,78.99
2022-11-15T11:53:35.755Z,78.44
2022-11-15T11:55:52.742Z,79.20
2022-11-15T11:58:20.848Z,78.47
2022-11-15T12:00:24.647Z,78.31
2022-11-15T12:02:32.757Z,77.95
2022-11-15T12:04:41.228Z,78.62
2022-11-15T12:06:46.268Z,79.31
2022-11-15T12:09:25.665Z,78.08
2022-11-15T12:11:52.863Z,77.65
2022-11-15T12:13:59.595Z,78.19
2022-11-15T12:16:12.124Z,78.76
2022-11-15T12:18:16.848Z,79.43
2022-11-15T12:20:23.688Z,78.40
2022-11-15T12:22:46.706Z,77.76
2022-11-15T12:24:56.898Z,78.90
2022-11-15T12:27:15.212Z,79.13
2022-11-15T12:29:39.999Z,79.03
2022-11-15T12:31:49.802Z,79.28
2022-11-15T12:33:58.977Z,79.28
2022-11-15T12:36:06.198Z,79.37
2022-11-15T12:38:12.577Z,76.82
2022-11-15T12:40:27.543Z,75.67
2022-11-15T12:42:31.982Z,73.95
2022-11-15T12:44:33.794Z,72.83
2022-11-15T12:46:41.565Z,72.52
2022-11-15T12:48:42.940Z,72.00
2022-11-15T12:50:54.843Z,71.81
2022-11-15T12:53:28.392Z,70.75
2022-11-15T12:55:32.865Z,72.08
2022-11-15T12:57:40.277Z,71.07
2022-11-15T12:59:59.791Z,71.37
2022-11-15T13:02:02.287Z,72.19
2022-11-15T13:04:25.382Z,70.65
2022-11-15T13:06:59.361Z,69.89
2022-11-15T13:09:00.900Z,71.82
2022-11-15T13:11:49.101Z,70.85
2022-11-15T13:13:50.433Z,69.91
2022-11-15T13:16:00.438Z,72.05
2022-11-15T13:18:24.518Z,71.33
2022-11-15T13:20:33.410Z,71.36
2022-11-15T13:23:04.083Z,70.86
2022-11-15T13:25:16.982Z,70.70
2022-11-15T13:27:21.153Z,71.49
2022-11-15T13:29:22.653Z,70.80
2022-11-15T13:31:24.129Z,70.28
2022-11-15T13:33:36.275Z,69.64
2022-11-15T13:35:41.786Z,70.29
2022-11-15T13:37:43.283Z,69.92
2022-11-15T13:39:44.852Z,69.97
2022-11-15T13:41:49.436Z,69.73
2022-11-15T13:43:53.019Z,68.35
2022-11-15T13:46:19.177Z,67.66
2022-11-15T13:48:20.611Z,68.44
2022-11-15T13:50:26.194Z,68.70
2022-11-15T13:52:32.474Z,69.52
2022-11-15T13:54:46.239Z,67.64
2022-11-15T13:57:04.467Z,67.25
2022-11-15T13:59:21.553Z,68.13
2022-11-15T14:01:23.905Z,67.55
2022-11-15T14:03:28.661Z,68.10
2022-11-15T14:05:30.459Z,66.70
2022-11-15T14:07:33.496Z,66.36
2022-11-15T14:09:40.923Z,66.39
2022-11-15T14:11:56.582Z,66.00
2022-11-15T14:14:09.944Z,65.85
2022-11-15T14:16:18.407Z,67.95
2022-11-15T14:18:41.478Z,67.81
2022-11-15T14:20:43.843Z,69.70
2022-11-15T14:22:53.648Z,68.77
2022-11-15T14:25:14.002Z,67.93
2022-11-15T14:27:27.379Z,68.59
2022-11-15T14:29:30.751Z,69.98
2022-11-15T14:31:32.207Z,70.30
2022-11-15T14:33:40.285Z,70.99
2022-11-15T14:35:41.869Z,70.55
2022-11-15T14:37:44.043Z,69.55
2022-11-15T14:39:45.532Z,70.38
2022-11-15T14:41:46.957Z,71.42
2022-11-15T14:43:49.056Z,71.65
2022-11-15T14:45:50.634Z,72.30
2022-11-15T14:47:52.067Z,73.54
2022-11-15T14:49:53.513Z,74.02
2022-11-15T14:51:54.933Z,74.82
2022-11-15T14:53:56.455Z,75.70
2022-11-15T14:55:57.949Z,75.93
2022-11-15T14:58:00.172Z,76.41
2022-11-15T15:00:01.725Z,77.15
2022-11-15T15:02:03.200Z,77.60
2022-11-15T15:04:04.662Z,78.63
2022-11-15T15:06:06.382Z,79.07
2022-11-15T15:08:08.488Z,79.37
2022-11-15T15:10:38.392Z,79.95
2022-11-15T15:12:32.390Z,80.40
2022-11-15T15:14:33.822Z,80.86
2022-11-15T15:16:35.264Z,81.42
2022-11-15T15:18:36.747Z,81.47
2022-11-15T15:20:40.552Z,81.87
2022-11-15T15:22:42.086Z,81.75
2022-11-15T15:24:45.227Z,81.46
2022-11-15T15:26:46.690Z,82.02
2022-11-15T15:28:49.664Z,82.08
2022-11-15T15:30:51.176Z,82.41
2022-11-15T15:32:53.092Z,82.40
2022-11-15T15:34:54.529Z,82.70
2022-11-15T15:37:20.636Z,82.53
2022-11-15T15:39:22.099Z,82.53
2022-11-15T15:41:24.145Z,82.54
2022-11-15T15:43:25.561Z,82.82
2022-11-15T15:45:30.964Z,82.83
2022-11-15T15:47:32.446Z,82.66
2022-11-15T15:49:33.876Z,82.78
2022-11-15T15:51:35.339Z,82.64
2022-11-15T15:53:36.958Z,83.12
2022-11-15T15:55:38.835Z,82.99
2022-11-15T15:57:40.390Z,83.11
2022-11-15T15:59:42.167Z,83.17
2022-11-15T16:01:43.671Z,83.53
2022-11-15T16:03:45.144Z,83.41
2022-11-15T16:05:46.689Z,83.90
2022-11-15T16:07:48.921Z,83.85
2022-11-15T16:10:03.503Z,83.92
2022-11-15T16:12:05.022Z,84.31
2022-11-15T16:14:06.686Z,84.49
2022-11-15T16:16:13.993Z,84.29
2022-11-15T16:18:19.096Z,84.46
2022-11-15T16:20:31.377Z,84.52
2022-11-15T16:22:33.082Z,84.90
2022-11-15T16:24:34.559Z,84.67
2022-11-15T16:26:38.166Z,84.19
2022-11-15T16:28:39.607Z,84.09
2022-11-15T16:30:41.050Z,84.27
2022-11-15T16:32:42.584Z,84.55
2022-11-15T16:34:48.676Z,84.79
2022-11-15T16:36:51.567Z,84.88
2022-11-15T16:38:53.258Z,84.73
2022-11-15T16:40:54.704Z,85.30
2022-11-15T16:42:56.617Z,85.32
2022-11-15T16:44:58.053Z,85.13
2022-11-15T16:46:59.554Z,84.80
2022-11-15T16:49:01.006Z,85.03
2022-11-15T16:51:04.929Z,85.23
2022-11-15T16:53:06.699Z,85.33
2022-11-15T16:55:08.601Z,85.54
2022-11-15T16:57:11.419Z,85.20
2022-11-15T16:59:17.814Z,84.48
2022-11-15T17:01:23.857Z,84.26
2022-11-15T17:03:25.430Z,85.11
2022-11-15T17:05:29.800Z,85.76
2022-11-15T17:07:31.359Z,85.58
2022-11-15T17:09:34.255Z,84.93
2022-11-15T17:11:35.701Z,85.32
2022-11-15T17:13:37.191Z,85.68
2022-11-15T17:15:38.641Z,85.54
2022-11-15T17:17:40.878Z,84.73
2022-11-15T17:19:42.441Z,85.06
2022-11-15T17:21:45.113Z,84.88
2022-11-15T17:23:47.170Z,84.96
2022-11-15T17:25:48.589Z,85.11
2022-11-15T17:27:50.141Z,85.31
2022-11-15T17:29:51.646Z,85.43
2022-11-15T17:31:53.078Z,86.01
2022-11-15T17:33:54.601Z,86.18
2022-11-15T17:36:00.992Z,85.67
2022-11-15T17:38:02.447Z,86.40
2022-11-15T17:40:04.926Z,85.64
2022-11-15T17:42:06.437Z,85.76
2022-11-15T17:44:08.018Z,85.99
2022-11-15T17:46:12.689Z,85.57
2022-11-15T17:48:14.135Z,85.26
2022-11-15T17:50:16.191Z,85.63
2022-11-15T17:52:17.700Z,84.77
2022-11-15T17:54:19.217Z,84.98
2022-11-15T17:56:22.924Z,85.02
2022-11-15T17:58:24.414Z,85.18
2022-11-15T18:00:25.911Z,85.64
2022-11-15T18:02:27.351Z,85.71
2022-11-15T18:04:28.996Z,85.85
2022-11-15T18:06:34.064Z,85.74
2022-11-15T18:08:37.295Z,85.62
2022-11-15T18:10:38.757Z,86.14
2022-11-15T18:12:40.177Z,86.13
2022-11-15T18:14:41.708Z,86.08
2022-11-15T18:16:43.430Z,86.34
2022-11-15T18:18:45.010Z,86.28
2022-11-15T18:20:46.436Z,86.24
2022-11-15T18:22:47.889Z,85.97
2022-11-15T18:24:49.362Z,85.80
2022-11-15T18:26:51.000Z,86.20
2022-11-15T18:28:54.214Z,86.31
2022-11-15T18:30:55.658Z,85.98
2022-11-15T18:32:57.115Z,85.84
2022-11-15T18:34:58.567Z,86.24
2022-11-15T18:37:02.644Z,85.14
2022-11-15T18:39:04.738Z,85.70
2022-11-15T18:41:11.665Z,85.79
2022-11-15T18:43:13.084Z,85.41
2022-11-15T18:45:14.644Z,86.11
2022-11-15T18:47:16.064Z,86.34
2022-11-15T18:49:19.670Z,86.66
2022-11-15T18:51:26.968Z,86.82
2022-11-15T18:53:28.579Z,87.08
2022-11-15T18:55:30.036Z,87.13
2022-11-15T18:57:31.475Z,87.12
2022-11-15T18:59:32.934Z,86.83
2022-11-15T19:01:38.810Z,87.06
2022-11-15T19:03:43.552Z,87.08
2022-11-15T19:05:44.993Z,86.69
2022-11-15T19:07:49.362Z,86.36
2022-11-15T19:09:50.938Z,86.37
2022-11-15T19:11:52.405Z,86.47
2022-11-15T19:14:07.113Z,86.77
2022-11-15T19:16:11.211Z,86.88
2022-11-15T19:18:12.637Z,86.70
2022-11-15T19:20:14.110Z,86.42
2022-11-15T19:22:15.519Z,86.44
2022-11-15T19:24:17.232Z,86.40
2022-11-15T19:26:18.697Z,86.40
2022-11-15T19:28:20.161Z,86.34
2022-11-15T19:30:21.618Z,86.32
2022-11-15T19:32:23.053Z,86.52
2022-11-15T19:34:24.493Z,86.28
2022-11-15T19:36:34.151Z,86.40
2022-11-15T19:38:36.169Z,86.11
2022-11-15T19:40:37.953Z,86.15
2022-11-15T19:42:39.401Z,86.43
2022-11-15T19:44:41.122Z,86.47
2022-11-15T19:46:42.755Z,86.85
2022-11-15T19:48:44.355Z,86.56
2022-11-15T19:50:45.871Z,86.47
2022-11-15T19:52:47.317Z,86.31
2022-11-15T19:54:48.802Z,86.57
2022-11-15T19:56:51.677Z,86.43
2022-11-15T19:58:56.319Z,86.65
2022-11-15T20:01:19.099Z,86.43
2022-11-15T20:03:20.617Z,86.42
2022-11-15T20:05:22.351Z,86.21
2022-11-15T20:07:23.862Z,85.65
2022-11-15T20:09:26.168Z,85.81
2022-11-15T20:11:27.915Z,85.13
2022-11-15T20:13:29.697Z,85.84
2022-11-15T20:15:31.125Z,86.22
2022-11-15T20:17:32.751Z,85.66
2022-11-15T20:19:34.185Z,85.09
2022-11-15T20:21:36.171Z,85.28
2022-11-15T20:23:39.013Z,85.80
2022-11-15T20:25:44.305Z,86.02
2022-11-15T20:27:45.880Z,86.35
2022-11-15T20:29:48.771Z,86.50
2022-11-15T20:31:50.295Z,86.70
2022-11-15T20:33:51.764Z,86.95
2022-11-15T20:35:54.309Z,87.12
2022-11-15T20:37:55.728Z,86.79
2022-11-15T20:39:57.169Z,86.76
2022-11-15T20:41:58.710Z,86.57
2022-11-15T20:44:02.897Z,85.93
2022-11-15T20:46:04.557Z,86.09
2022-11-15T20:48:06.409Z,86.49
2022-11-15T20:50:35.341Z,86.37
2022-11-15T20:52:29.908Z,85.17
2022-11-15T20:54:31.352Z,85.79
2022-11-15T20:56:34.374Z,86.05
2022-11-15T20:58:37.266Z,86.51
2022-11-15T21:00:38.789Z,86.52
2022-11-15T21:02:40.257Z,86.49
2022-11-15T21:04:41.777Z,86.19
2022-11-15T21:06:47.616Z,86.43
2022-11-15T21:09:09.871Z,86.86
2022-11-15T21:11:37.290Z,87.25
2022-11-15T21:13:39.509Z,87.01
2022-11-15T21:15:40.966Z,86.76
2022-11-15T21:17:42.558Z,86.60
2022-11-15T21:19:44.362Z,86.67
2022-11-15T21:21:45.797Z,85.99
2022-11-15T21:23:47.263Z,86.57
2022-11-15T21:25:50.613Z,86.93
2022-11-15T21:27:52.564Z,85.96
2022-11-15T21:29:53.989Z,85.81
2022-11-15T21:31:55.495Z,85.37
2022-11-15T21:33:56.960Z,84.50
2022-11-15T21:35:58.464Z,84.87
2022-11-15T21:37:59.891Z,84.70
2022-11-15T21:40:01.385Z,84.42
2022-11-15T21:42:03.418Z,85.14
2022-11-15T21:44:05.242Z,85.19
2022-11-15T21:46:07.195Z,84.93
2022-11-15T21:48:08.689Z,85.39
2022-11-15T21:50:10.283Z,85.33
2022-11-15T21:52:11.765Z,84.81
2022-11-15T21:54:13.228Z,84.76
2022-11-15T21:56:14.907Z,85.09
2022-11-15T21:58:16.819Z,85.65
2022-11-15T22:00:37.193Z,85.53
2022-11-15T22:02:38.637Z,85.71
2022-11-15T22:04:40.106Z,85.88
2022-11-15T22:06:41.746Z,85.46
2022-11-15T22:08:43.512Z,85.36
2022-11-15T22:10:48.679Z,85.38
2022-11-15T22:12:50.117Z,84.92
2022-11-15T22:14:51.578Z,85.28
2022-11-15T22:16:53.035Z,85.36
2022-11-15T22:18:54.723Z,85.51
2022-11-15T22:21:01.319Z,85.35
2022-11-15T22:23:03.497Z,86.09
2022-11-15T22:25:05.453Z,85.62
2022-11-15T22:27:07.019Z,85.58
2022-11-15T22:29:08.519Z,85.13
2022-11-15T22:31:10.969Z,84.35
2022-11-15T22:33:12.995Z,84.76
2022-11-15T22:35:14.905Z,85.02
2022-11-15T22:37:20.919Z,84.65
2022-11-15T22:39:22.728Z,84.15
2022-11-15T22:41:24.236Z,84.32
2022-11-15T22:43:27.053Z,84.18
2022-11-15T22:45:28.572Z,85.04
2022-11-15T22:47:30.071Z,85.52
2022-11-15T22:49:31.566Z,84.88
2022-11-15T22:51:33.084Z,85.08
2022-11-15T22:53:34.746Z,84.52
2022-11-15T22:55:41.202Z,84.34
2022-11-15T22:57:43.133Z,84.53
2022-11-15T22:59:44.695Z,84.56
2022-11-15T23:01:46.596Z,83.79
2022-11-15T23:03:48.427Z,83.42
2022-11-15T23:05:50.288Z,83.42
2022-11-15T23:07:51.802Z,83.17
2022-11-15T23:09:55.283Z,83.69
2022-11-15T23:12:15.201Z,84.18
2022-11-15T23:14:16.699Z,83.76
2022-11-15T23:16:34.370Z,84.48
2022-11-15T23:18:41.740Z,84.28
2022-11-15T23:20:43.992Z,84.26
2022-11-15T23:22:48.193Z,83.74
2022-11-15T23:24:51.667Z,83.83
2022-11-15T23:26:58.075Z,83.83
2022-11-15T23:28:59.875Z,83.17
2022-11-15T23:31:25.620Z,83.83
2022-11-15T23:33:45.422Z,84.03
2022-11-15T23:35:54.881Z,84.06
2022-11-15T23:37:56.375Z,84.13
2022-11-15T23:39:57.862Z,84.27
2022-11-15T23:42:03.156Z,84.04
2022-11-15T23:44:07.660Z,84.46
2022-11-15T23:46:09.176Z,83.77
2022-11-15T23:48:11.321Z,83.21
2022-11-15T23:50:12.817Z,84.35
2022-11-15T23:52:15.562Z,84.39
2022-11-15T23:54:17.111Z,84.83
2022-11-15T23:56:20.302Z,85.32
2022-11-15T23:58:21.910Z,84.75
